Historique des mesures à Cassis (13260), France
Quotidien Résumé Juillet 5, 2018 Unités:  Métrique    US   Métrique/US
« Précédent (Jour)
Suivant (Jour) »
Quotidien Hebdomadaire Mensuel Annuel Période au choix
  Maximum: Minimum: Moyenne:
Température: TemperatureC °C 23.7 °C 25.9 °C
Point de rosée: DewpointC °C 14.5 °C 18.1 °C
Humidité: Humidity % 46 % 60 %
Vitesse du vent: 0 km/h 0 km/h 14.2 km/h
Rafales: 0 km/h - -
Vent:- - WSW
Pression: PressurehPa hPa 1008.4 hPa -
Précipitations: 0.0 mm    
Historical Graphs
 
 
Mesures pour : Juillet 5, 2018
Heure Temperature Point de rosée Pression Vent Vitesse du vent Rafales Humidité Pluie (par heure) Conditions
TemperatureC °C DewpointC °C PressurehPa hPa Calm     Humidity % HourlyPrecipMM mm SoftwareType W/m2
00:10 25.2 °C 20.2 °C 1010.7 hPa Calm     74 % 0.0 mm open2300-1.11 W/m2
01:10 24.6 °C 19.9 °C 1011.1 hPa Calm     75 % 0.0 mm open2300-1.11 W/m2
02:10 24.1 °C 19.6 °C 1011.0 hPa Calm     76 % 0.0 mm open2300-1.11 W/m2
03:10 24.1 °C 19.8 °C 1010.1 hPa Calm   2.9 km/h 77 % 0.0 mm open2300-1.11 W/m2
04:10 23.9 °C 19.2 °C 1009.8 hPa Calm     75 % 0.0 mm open2300-1.11 W/m2
05:10 23.9 °C 19.2 °C 1009.4 hPa Calm   3.4 km/h 75 % 0.0 mm open2300-1.11 W/m2
06:10 23.8 °C 19.3 °C 1009.6 hPa Calm     76 % 0.0 mm open2300-1.11 W/m2
07:10 23.7 °C 19.4 °C 1009.7 hPa Calm     77 % 0.0 mm open2300-1.11 W/m2
08:10 25.3 °C 20.3 °C 1010.3 hPa Calm     74 % 0.0 mm open2300-1.11 W/m2
09:10 25.8 °C 20.3 °C 1010.3 hPa West 5.6 km/h 5.6 km/h 72 % 0.0 mm open2300-1.11 W/m2
10:10 27.2 °C 21.5 °C 1010.5 hPa SSW 12.7 km/h 12.7 km/h 71 % 0.0 mm open2300-1.11 W/m2
11:10 29.0 °C 21.2 °C 1010.4 hPa WNW 29 km/h 29 km/h 63 % 0.0 mm open2300-1.11 W/m2
12:10 29.5 °C 20.4 °C 1010.2 hPa North 12.2 km/h 14.5 km/h 58 % 0.0 mm open2300-1.11 W/m2
13:10 29.4 °C 19.7 °C 1009.9 hPa NW 41.2 km/h 41.2 km/h 56 % 0.0 mm open2300-1.11 W/m2
14:10 29.3 °C 18.4 °C 1009.7 hPa NW 46.3 km/h 48.6 km/h 52 % 0.0 mm open2300-1.11 W/m2
15:10 30.1 °C 18.6 °C 1009.5 hPa Calm   27.2 km/h 50 % 0.0 mm open2300-1.11 W/m2
16:10 29.9 °C 17.7 °C 1009.3 hPa WNW 52 km/h 52 km/h 48 % 0.0 mm open2300-1.11 W/m2
17:10 29.3 °C 17.5 °C 1008.9 hPa WNW 27.2 km/h 52.8 km/h 49 % 0.0 mm open2300-1.11 W/m2
18:10 29.2 °C 17.1 °C 1008.5 hPa NW 37 km/h 54.9 km/h 48 % 0.0 mm open2300-1.11 W/m2
19:10 29.2 °C 17.4 °C 1008.4 hPa NW 12.2 km/h 23.8 km/h 49 % 0.0 mm open2300-1.11 W/m2
20:10 29.1 °C 17.3 °C 1008.4 hPa WNW 8 km/h 21.6 km/h 49 % 0.0 mm open2300-1.11 W/m2
21:10 27.6 °C 18.0 °C 1008.6 hPa NW 18.7 km/h 18.7 km/h 56 % 0.0 mm open2300-1.11 W/m2
22:10 27.6 °C 15.2 °C 1009.3 hPa WNW 41.2 km/h 46.3 km/h 47 % 0.0 mm open2300-1.11 W/m2
23:10 27.2 °C 14.5 °C 1010.3 hPa North 9.3 km/h 9.3 km/h 46 % 0.0 mm open2300-1.11 W/m2
Observations météo à CASSIS
WU-History script by Weather Underground - 1 mb